Chicago, Illinois
Traffic Map
Current Weather Conditions
Chicago, Illinois
Few Clouds
Few Clouds
27°
Feels Like: 19°
Wind Chill: 19° Ceiling: Unl
Heat Index: 27° Visibility: 10mi
Dew Point: 14° Wind: 8mph
Humidity: 58% Direction: 250° (WSW)
Pressure: 30.43in Gusts: 0mph
Raw Report DataKMDW 310053Z 25007KT 10SM FEW120 M03/M10 A3043 RMK AO2 SLP319 T10281100
Traffic Incident Summary
Active as of:
Severity:
Category:
InformationThere was an issue retrieving the traffic information for this location. Please try a different location or try again shortly.
Advertisements
Track Severe Weather on mobile